sensor_id;sensor_type;location;lat;lon;timestamp;P1;durP1;ratioP1;P2;durP2;ratioP2
36839;SDS011;24406;51.640;9.566;2023-09-19T00:03:15;3.67;;;1.55;;
36839;SDS011;24406;51.640;9.566;2023-09-19T00:08:17;3.30;;;1.30;;
36839;SDS011;24406;51.640;9.566;2023-09-19T00:13:23;2.78;;;1.30;;
36839;SDS011;24406;51.640;9.566;2023-09-19T00:18:25;4.30;;;1.40;;
36839;SDS011;24406;51.640;9.566;2023-09-19T00:23:28;2.60;;;1.50;;
36839;SDS011;24406;51.640;9.566;2023-09-19T00:28:32;4.45;;;1.63;;
36839;SDS011;24406;51.640;9.566;2023-09-19T00:33:35;4.20;;;1.10;;
36839;SDS011;24406;51.640;9.566;2023-09-19T00:38:37;4.50;;;1.70;;
36839;SDS011;24406;51.640;9.566;2023-09-19T00:43:39;1.42;;;1.30;;
36839;SDS011;24406;51.640;9.566;2023-09-19T00:48:41;2.72;;;1.40;;
36839;SDS011;24406;51.640;9.566;2023-09-19T00:53:44;3.30;;;1.30;;
36839;SDS011;24406;51.640;9.566;2023-09-19T00:58:47;1.17;;;1.05;;
36839;SDS011;24406;51.640;9.566;2023-09-19T01:03:49;1.83;;;1.08;;
36839;SDS011;24406;51.640;9.566;2023-09-19T01:08:51;1.90;;;1.40;;
36839;SDS011;24406;51.640;9.566;2023-09-19T01:13:58;2.65;;;1.20;;
36839;SDS011;24406;51.640;9.566;2023-09-19T01:19:07;1.20;;;1.10;;
36839;SDS011;24406;51.640;9.566;2023-09-19T01:30:03;3.50;;;1.17;;
36839;SDS011;24406;51.640;9.566;2023-09-19T01:35:09;2.33;;;1.30;;
36839;SDS011;24406;51.640;9.566;2023-09-19T01:40:14;1.95;;;1.27;;
36839;SDS011;24406;51.640;9.566;2023-09-19T01:45:21;3.63;;;1.52;;
36839;SDS011;24406;51.640;9.566;2023-09-19T01:50:29;1.98;;;1.45;;
36839;SDS011;24406;51.640;9.566;2023-09-19T01:55:34;2.30;;;1.80;;
36839;SDS011;24406;51.640;9.566;2023-09-19T02:00:39;2.95;;;2.08;;
36839;SDS011;24406;51.640;9.566;2023-09-19T02:05:41;2.88;;;1.90;;
36839;SDS011;24406;51.640;9.566;2023-09-19T02:10:44;2.92;;;2.40;;
36839;SDS011;24406;51.640;9.566;2023-09-19T02:15:50;4.35;;;2.42;;
36839;SDS011;24406;51.640;9.566;2023-09-19T02:20:52;2.58;;;2.38;;
36839;SDS011;24406;51.640;9.566;2023-09-19T02:25:54;3.50;;;2.72;;
36839;SDS011;24406;51.640;9.566;2023-09-19T02:30:59;2.83;;;2.42;;
36839;SDS011;24406;51.640;9.566;2023-09-19T02:36:01;3.55;;;2.70;;
36839;SDS011;24406;51.640;9.566;2023-09-19T02:41:04;6.20;;;3.92;;
36839;SDS011;24406;51.640;9.566;2023-09-19T02:46:07;5.85;;;4.32;;
36839;SDS011;24406;51.640;9.566;2023-09-19T02:51:09;5.75;;;3.92;;
36839;SDS011;24406;51.640;9.566;2023-09-19T02:56:10;5.38;;;4.05;;
36839;SDS011;24406;51.640;9.566;2023-09-19T03:01:15;5.53;;;4.32;;
36839;SDS011;24406;51.640;9.566;2023-09-19T03:06:17;8.93;;;4.80;;
36839;SDS011;24406;51.640;9.566;2023-09-19T03:11:20;7.20;;;4.35;;
36839;SDS011;24406;51.640;9.566;2023-09-19T03:16:26;7.70;;;5.20;;
36839;SDS011;24406;51.640;9.566;2023-09-19T03:21:31;7.38;;;4.95;;
36839;SDS011;24406;51.640;9.566;2023-09-19T03:26:32;6.38;;;4.65;;
36839;SDS011;24406;51.640;9.566;2023-09-19T03:31:35;6.57;;;4.70;;
36839;SDS011;24406;51.640;9.566;2023-09-19T03:36:38;12.50;;;4.97;;
36839;SDS011;24406;51.640;9.566;2023-09-19T03:41:40;6.00;;;4.93;;
36839;SDS011;24406;51.640;9.566;2023-09-19T03:46:44;10.00;;;5.35;;
36839;SDS011;24406;51.640;9.566;2023-09-19T03:51:45;8.00;;;5.05;;
36839;SDS011;24406;51.640;9.566;2023-09-19T03:56:47;5.97;;;4.90;;
36839;SDS011;24406;51.640;9.566;2023-09-19T04:01:50;4.80;;;4.35;;
36839;SDS011;24406;51.640;9.566;2023-09-19T04:06:56;5.30;;;4.80;;
36839;SDS011;24406;51.640;9.566;2023-09-19T04:11:59;4.20;;;3.85;;
36839;SDS011;24406;51.640;9.566;2023-09-19T04:17:01;6.47;;;4.00;;
36839;SDS011;24406;51.640;9.566;2023-09-19T04:22:03;5.32;;;4.85;;
36839;SDS011;24406;51.640;9.566;2023-09-19T04:27:05;9.85;;;5.80;;
36839;SDS011;24406;51.640;9.566;2023-09-19T04:32:09;6.38;;;5.35;;
36839;SDS011;24406;51.640;9.566;2023-09-19T04:37:10;6.70;;;4.68;;
36839;SDS011;24406;51.640;9.566;2023-09-19T04:42:15;4.55;;;4.22;;
36839;SDS011;24406;51.640;9.566;2023-09-19T04:47:19;10.48;;;4.28;;
36839;SDS011;24406;51.640;9.566;2023-09-19T04:52:21;8.45;;;4.30;;
36839;SDS011;24406;51.640;9.566;2023-09-19T04:57:22;8.07;;;4.45;;
36839;SDS011;24406;51.640;9.566;2023-09-19T05:02:27;7.40;;;4.68;;
36839;SDS011;24406;51.640;9.566;2023-09-19T05:07:30;9.15;;;4.20;;
36839;SDS011;24406;51.640;9.566;2023-09-19T05:12:32;6.03;;;3.88;;
36839;SDS011;24406;51.640;9.566;2023-09-19T05:17:36;7.68;;;3.95;;
36839;SDS011;24406;51.640;9.566;2023-09-19T05:22:38;9.30;;;4.53;;
36839;SDS011;24406;51.640;9.566;2023-09-19T05:27:41;5.80;;;4.00;;
36839;SDS011;24406;51.640;9.566;2023-09-19T05:32:44;9.43;;;4.95;;
36839;SDS011;24406;51.640;9.566;2023-09-19T05:37:45;9.07;;;4.32;;
36839;SDS011;24406;51.640;9.566;2023-09-19T05:42:47;4.57;;;3.88;;
36839;SDS011;24406;51.640;9.566;2023-09-19T05:47:52;11.10;;;5.10;;
36839;SDS011;24406;51.640;9.566;2023-09-19T05:52:55;9.23;;;5.05;;
36839;SDS011;24406;51.640;9.566;2023-09-19T05:57:58;7.97;;;5.05;;
36839;SDS011;24406;51.640;9.566;2023-09-19T06:03:01;5.68;;;4.88;;
36839;SDS011;24406;51.640;9.566;2023-09-19T06:08:02;9.35;;;5.20;;
36839;SDS011;24406;51.640;9.566;2023-09-19T06:13:07;8.65;;;5.43;;
36839;SDS011;24406;51.640;9.566;2023-09-19T06:18:12;7.22;;;5.40;;
36839;SDS011;24406;51.640;9.566;2023-09-19T06:23:19;6.38;;;4.68;;
36839;SDS011;24406;51.640;9.566;2023-09-19T06:28:22;8.75;;;4.97;;
36839;SDS011;24406;51.640;9.566;2023-09-19T06:33:25;7.38;;;4.45;;
36839;SDS011;24406;51.640;9.566;2023-09-19T06:38:27;6.65;;;3.38;;
36839;SDS011;24406;51.640;9.566;2023-09-19T06:43:28;9.80;;;5.00;;
36839;SDS011;24406;51.640;9.566;2023-09-19T06:48:32;6.47;;;3.28;;
36839;SDS011;24406;51.640;9.566;2023-09-19T06:53:33;7.85;;;3.88;;
36839;SDS011;24406;51.640;9.566;2023-09-19T06:58:36;6.38;;;3.00;;
36839;SDS011;24406;51.640;9.566;2023-09-19T07:03:39;9.45;;;3.10;;
36839;SDS011;24406;51.640;9.566;2023-09-19T07:08:40;9.50;;;3.45;;
36839;SDS011;24406;51.640;9.566;2023-09-19T07:13:42;7.43;;;4.03;;
36839;SDS011;24406;51.640;9.566;2023-09-19T07:18:44;8.52;;;3.60;;
36839;SDS011;24406;51.640;9.566;2023-09-19T07:23:46;5.65;;;2.90;;
36839;SDS011;24406;51.640;9.566;2023-09-19T07:28:47;8.57;;;3.58;;
36839;SDS011;24406;51.640;9.566;2023-09-19T07:33:51;13.10;;;3.92;;
36839;SDS011;24406;51.640;9.566;2023-09-19T07:38:53;8.80;;;3.35;;
36839;SDS011;24406;51.640;9.566;2023-09-19T07:43:55;8.18;;;4.22;;
36839;SDS011;24406;51.640;9.566;2023-09-19T07:48:58;9.98;;;4.20;;
36839;SDS011;24406;51.640;9.566;2023-09-19T07:54:00;7.70;;;3.30;;
36839;SDS011;24406;51.640;9.566;2023-09-19T07:59:02;4.93;;;3.63;;
36839;SDS011;24406;51.640;9.566;2023-09-19T08:04:05;6.28;;;3.53;;
36839;SDS011;24406;51.640;9.566;2023-09-19T08:09:07;8.95;;;3.30;;
36839;SDS011;24406;51.640;9.566;2023-09-19T08:14:10;3.75;;;2.88;;
36839;SDS011;24406;51.640;9.566;2023-09-19T08:19:15;5.75;;;2.97;;
36839;SDS011;24406;51.640;9.566;2023-09-19T08:24:17;4.50;;;3.17;;
36839;SDS011;24406;51.640;9.566;2023-09-19T08:29:19;5.07;;;2.80;;
36839;SDS011;24406;51.640;9.566;2023-09-19T08:34:22;5.80;;;3.25;;
36839;SDS011;24406;51.640;9.566;2023-09-19T08:39:24;4.30;;;3.08;;
36839;SDS011;24406;51.640;9.566;2023-09-19T08:44:26;9.02;;;3.03;;
36839;SDS011;24406;51.640;9.566;2023-09-19T08:49:32;7.22;;;3.92;;
36839;SDS011;24406;51.640;9.566;2023-09-19T08:54:37;6.22;;;3.20;;
36839;SDS011;24406;51.640;9.566;2023-09-19T08:59:40;8.95;;;3.42;;
36839;SDS011;24406;51.640;9.566;2023-09-19T09:04:45;8.07;;;2.97;;
36839;SDS011;24406;51.640;9.566;2023-09-19T09:09:47;9.27;;;3.40;;
36839;SDS011;24406;51.640;9.566;2023-09-19T09:14:49;6.47;;;3.15;;
36839;SDS011;24406;51.640;9.566;2023-09-19T09:19:53;6.80;;;3.03;;
36839;SDS011;24406;51.640;9.566;2023-09-19T09:24:55;6.35;;;2.70;;
36839;SDS011;24406;51.640;9.566;2023-09-19T09:29:59;9.52;;;4.05;;
36839;SDS011;24406;51.640;9.566;2023-09-19T09:35:06;8.02;;;2.75;;
36839;SDS011;24406;51.640;9.566;2023-09-19T09:45:36;8.82;;;2.22;;
36839;SDS011;24406;51.640;9.566;2023-09-19T09:50:46;6.30;;;2.38;;
36839;SDS011;24406;51.640;9.566;2023-09-19T09:55:59;5.28;;;2.72;;
36839;SDS011;24406;51.640;9.566;2023-09-19T10:01:03;10.88;;;3.25;;
36839;SDS011;24406;51.640;9.566;2023-09-19T10:06:12;15.15;;;3.45;;
36839;SDS011;24406;51.640;9.566;2023-09-19T10:11:26;7.53;;;2.53;;
36839;SDS011;24406;51.640;9.566;2023-09-19T10:16:30;9.85;;;2.97;;
36839;SDS011;24406;51.640;9.566;2023-09-19T10:21:34;8.00;;;2.65;;
36839;SDS011;24406;51.640;9.566;2023-09-19T10:26:37;7.38;;;2.55;;
36839;SDS011;24406;51.640;9.566;2023-09-19T10:31:43;8.45;;;2.55;;
36839;SDS011;24406;51.640;9.566;2023-09-19T10:36:49;7.97;;;3.17;;
36839;SDS011;24406;51.640;9.566;2023-09-19T10:41:53;6.47;;;2.88;;
36839;SDS011;24406;51.640;9.566;2023-09-19T10:46:55;7.78;;;3.05;;
36839;SDS011;24406;51.640;9.566;2023-09-19T10:51:59;8.48;;;2.55;;
36839;SDS011;24406;51.640;9.566;2023-09-19T10:57:01;6.72;;;2.53;;
36839;SDS011;24406;51.640;9.566;2023-09-19T11:02:15;7.07;;;2.83;;
36839;SDS011;24406;51.640;9.566;2023-09-19T11:07:18;7.22;;;2.65;;
36839;SDS011;24406;51.640;9.566;2023-09-19T11:17:49;9.35;;;3.05;;
36839;SDS011;24406;51.640;9.566;2023-09-19T11:28:29;7.45;;;2.67;;
36839;SDS011;24406;51.640;9.566;2023-09-19T11:33:33;8.07;;;2.45;;
36839;SDS011;24406;51.640;9.566;2023-09-19T11:38:58;5.63;;;2.58;;
36839;SDS011;24406;51.640;9.566;2023-09-19T11:49:36;6.78;;;2.67;;
36839;SDS011;24406;51.640;9.566;2023-09-19T11:54:44;6.60;;;2.65;;
36839;SDS011;24406;51.640;9.566;2023-09-19T11:59:47;10.90;;;2.97;;
36839;SDS011;24406;51.640;9.566;2023-09-19T12:04:53;4.15;;;2.30;;
36839;SDS011;24406;51.640;9.566;2023-09-19T12:10:03;7.45;;;2.75;;
36839;SDS011;24406;51.640;9.566;2023-09-19T12:15:10;5.35;;;2.60;;
36839;SDS011;24406;51.640;9.566;2023-09-19T12:20:13;5.38;;;2.72;;
36839;SDS011;24406;51.640;9.566;2023-09-19T12:25:16;4.88;;;2.47;;
36839;SDS011;24406;51.640;9.566;2023-09-19T12:30:18;11.75;;;3.25;;
36839;SDS011;24406;51.640;9.566;2023-09-19T12:35:26;9.77;;;2.97;;
36839;SDS011;24406;51.640;9.566;2023-09-19T12:40:30;6.07;;;2.77;;
36839;SDS011;24406;51.640;9.566;2023-09-19T12:45:33;8.15;;;3.58;;
36839;SDS011;24406;51.640;9.566;2023-09-19T12:50:37;4.90;;;2.50;;
36839;SDS011;24406;51.640;9.566;2023-09-19T12:56:09;8.27;;;2.95;;
36839;SDS011;24406;51.640;9.566;2023-09-19T13:01:13;7.88;;;2.58;;
36839;SDS011;24406;51.640;9.566;2023-09-19T13:06:15;8.40;;;2.95;;
36839;SDS011;24406;51.640;9.566;2023-09-19T13:11:18;14.95;;;3.00;;
36839;SDS011;24406;51.640;9.566;2023-09-19T13:16:21;7.25;;;2.67;;
36839;SDS011;24406;51.640;9.566;2023-09-19T13:21:28;7.15;;;2.70;;
36839;SDS011;24406;51.640;9.566;2023-09-19T13:26:34;5.28;;;2.72;;
36839;SDS011;24406;51.640;9.566;2023-09-19T13:31:36;8.15;;;2.60;;
36839;SDS011;24406;51.640;9.566;2023-09-19T13:36:41;4.90;;;2.25;;
36839;SDS011;24406;51.640;9.566;2023-09-19T13:41:45;4.78;;;2.70;;
36839;SDS011;24406;51.640;9.566;2023-09-19T13:46:47;5.65;;;2.30;;
36839;SDS011;24406;51.640;9.566;2023-09-19T13:51:49;6.30;;;2.45;;
36839;SDS011;24406;51.640;9.566;2023-09-19T13:56:51;6.38;;;2.15;;
36839;SDS011;24406;51.640;9.566;2023-09-19T14:01:54;4.13;;;2.00;;
36839;SDS011;24406;51.640;9.566;2023-09-19T14:06:55;7.32;;;2.42;;
36839;SDS011;24406;51.640;9.566;2023-09-19T14:11:59;6.10;;;2.22;;
36839;SDS011;24406;51.640;9.566;2023-09-19T14:17:00;5.47;;;1.90;;
36839;SDS011;24406;51.640;9.566;2023-09-19T14:22:02;5.30;;;1.95;;
36839;SDS011;24406;51.640;9.566;2023-09-19T14:27:09;5.30;;;2.28;;
36839;SDS011;24406;51.640;9.566;2023-09-19T14:32:11;8.57;;;2.38;;
36839;SDS011;24406;51.640;9.566;2023-09-19T14:37:12;4.57;;;1.95;;
36839;SDS011;24406;51.640;9.566;2023-09-19T14:42:15;5.82;;;1.92;;
36839;SDS011;24406;51.640;9.566;2023-09-19T14:47:17;6.40;;;2.13;;
36839;SDS011;24406;51.640;9.566;2023-09-19T14:52:19;5.75;;;2.17;;
36839;SDS011;24406;51.640;9.566;2023-09-19T14:57:22;4.90;;;2.13;;
36839;SDS011;24406;51.640;9.566;2023-09-19T15:02:24;6.50;;;2.58;;
36839;SDS011;24406;51.640;9.566;2023-09-19T15:07:26;4.28;;;2.30;;
36839;SDS011;24406;51.640;9.566;2023-09-19T15:12:30;5.15;;;2.50;;
36839;SDS011;24406;51.640;9.566;2023-09-19T15:17:32;4.40;;;2.58;;
36839;SDS011;24406;51.640;9.566;2023-09-19T15:22:34;8.20;;;2.95;;
36839;SDS011;24406;51.640;9.566;2023-09-19T15:27:37;4.88;;;2.35;;
36839;SDS011;24406;51.640;9.566;2023-09-19T15:32:38;6.68;;;2.45;;
36839;SDS011;24406;51.640;9.566;2023-09-19T15:37:40;4.07;;;2.40;;
36839;SDS011;24406;51.640;9.566;2023-09-19T15:42:43;5.72;;;2.25;;
36839;SDS011;24406;51.640;9.566;2023-09-19T15:47:44;7.55;;;2.38;;
36839;SDS011;24406;51.640;9.566;2023-09-19T15:52:46;6.18;;;2.53;;
36839;SDS011;24406;51.640;9.566;2023-09-19T15:57:48;6.18;;;2.35;;
36839;SDS011;24406;51.640;9.566;2023-09-19T16:02:51;4.78;;;2.28;;
36839;SDS011;24406;51.640;9.566;2023-09-19T16:07:53;4.18;;;2.40;;
36839;SDS011;24406;51.640;9.566;2023-09-19T16:12:55;7.80;;;3.10;;
36839;SDS011;24406;51.640;9.566;2023-09-19T16:17:57;5.25;;;2.90;;
36839;SDS011;24406;51.640;9.566;2023-09-19T16:23:00;6.85;;;2.17;;
36839;SDS011;24406;51.640;9.566;2023-09-19T16:28:03;3.97;;;2.28;;
36839;SDS011;24406;51.640;9.566;2023-09-19T16:33:05;7.15;;;2.50;;
36839;SDS011;24406;51.640;9.566;2023-09-19T16:38:07;6.70;;;2.58;;
36839;SDS011;24406;51.640;9.566;2023-09-19T16:43:10;5.90;;;3.00;;
36839;SDS011;24406;51.640;9.566;2023-09-19T16:48:12;4.10;;;2.10;;
36839;SDS011;24406;51.640;9.566;2023-09-19T16:53:14;5.07;;;2.15;;
36839;SDS011;24406;51.640;9.566;2023-09-19T16:58:18;5.43;;;1.95;;
36839;SDS011;24406;51.640;9.566;2023-09-19T17:03:19;5.57;;;2.45;;
36839;SDS011;24406;51.640;9.566;2023-09-19T17:08:21;6.95;;;2.78;;
36839;SDS011;24406;51.640;9.566;2023-09-19T17:13:24;10.48;;;2.63;;
36839;SDS011;24406;51.640;9.566;2023-09-19T17:18:26;5.13;;;2.38;;
36839;SDS011;24406;51.640;9.566;2023-09-19T17:23:29;6.72;;;2.40;;
36839;SDS011;24406;51.640;9.566;2023-09-19T17:28:32;5.93;;;2.28;;
36839;SDS011;24406;51.640;9.566;2023-09-19T17:33:34;4.50;;;2.10;;
36839;SDS011;24406;51.640;9.566;2023-09-19T17:38:36;9.77;;;2.75;;
36839;SDS011;24406;51.640;9.566;2023-09-19T17:43:39;5.80;;;2.08;;
36839;SDS011;24406;51.640;9.566;2023-09-19T17:48:41;3.67;;;1.85;;
36839;SDS011;24406;51.640;9.566;2023-09-19T17:53:43;7.35;;;2.75;;
36839;SDS011;24406;51.640;9.566;2023-09-19T17:58:46;7.05;;;2.42;;
36839;SDS011;24406;51.640;9.566;2023-09-19T18:03:54;6.15;;;2.50;;
36839;SDS011;24406;51.640;9.566;2023-09-19T18:08:57;10.65;;;2.15;;
36839;SDS011;24406;51.640;9.566;2023-09-19T18:14:00;5.78;;;2.33;;
36839;SDS011;24406;51.640;9.566;2023-09-19T18:19:02;5.88;;;1.95;;
36839;SDS011;24406;51.640;9.566;2023-09-19T18:24:04;4.75;;;2.30;;
36839;SDS011;24406;51.640;9.566;2023-09-19T18:29:10;3.85;;;2.10;;
36839;SDS011;24406;51.640;9.566;2023-09-19T18:34:12;7.80;;;2.22;;
36839;SDS011;24406;51.640;9.566;2023-09-19T18:39:15;5.45;;;2.10;;
36839;SDS011;24406;51.640;9.566;2023-09-19T18:44:21;5.07;;;2.15;;
36839;SDS011;24406;51.640;9.566;2023-09-19T18:49:22;8.30;;;2.92;;
36839;SDS011;24406;51.640;9.566;2023-09-19T18:54:24;7.05;;;2.17;;
36839;SDS011;24406;51.640;9.566;2023-09-19T18:59:27;5.10;;;2.53;;
36839;SDS011;24406;51.640;9.566;2023-09-19T19:04:29;6.85;;;1.70;;
36839;SDS011;24406;51.640;9.566;2023-09-19T19:09:30;5.88;;;2.55;;
36839;SDS011;24406;51.640;9.566;2023-09-19T19:14:33;4.82;;;1.92;;
36839;SDS011;24406;51.640;9.566;2023-09-19T19:19:35;4.32;;;1.65;;
36839;SDS011;24406;51.640;9.566;2023-09-19T19:24:36;11.65;;;2.60;;
36839;SDS011;24406;51.640;9.566;2023-09-19T19:29:39;11.68;;;2.25;;
36839;SDS011;24406;51.640;9.566;2023-09-19T19:34:41;6.85;;;1.60;;
36839;SDS011;24406;51.640;9.566;2023-09-19T19:39:43;5.15;;;1.98;;
36839;SDS011;24406;51.640;9.566;2023-09-19T19:44:46;5.93;;;2.58;;
36839;SDS011;24406;51.640;9.566;2023-09-19T19:49:54;5.28;;;2.10;;
36839;SDS011;24406;51.640;9.566;2023-09-19T19:54:58;4.35;;;2.05;;
36839;SDS011;24406;51.640;9.566;2023-09-19T20:00:02;4.45;;;1.92;;
36839;SDS011;24406;51.640;9.566;2023-09-19T20:05:06;3.55;;;1.95;;
36839;SDS011;24406;51.640;9.566;2023-09-19T20:10:11;4.50;;;2.05;;
36839;SDS011;24406;51.640;9.566;2023-09-19T20:15:15;6.97;;;2.90;;
36839;SDS011;24406;51.640;9.566;2023-09-19T20:20:17;6.18;;;2.00;;
36839;SDS011;24406;51.640;9.566;2023-09-19T20:25:24;6.63;;;2.30;;
36839;SDS011;24406;51.640;9.566;2023-09-19T20:30:29;4.95;;;1.70;;
36839;SDS011;24406;51.640;9.566;2023-09-19T20:35:34;5.47;;;1.80;;
36839;SDS011;24406;51.640;9.566;2023-09-19T20:40:39;9.98;;;3.03;;
36839;SDS011;24406;51.640;9.566;2023-09-19T20:45:42;4.55;;;2.28;;
36839;SDS011;24406;51.640;9.566;2023-09-19T20:50:43;3.40;;;1.85;;
36839;SDS011;24406;51.640;9.566;2023-09-19T20:55:45;5.38;;;2.30;;
36839;SDS011;24406;51.640;9.566;2023-09-19T21:00:48;6.13;;;1.92;;
36839;SDS011;24406;51.640;9.566;2023-09-19T21:05:58;4.25;;;2.20;;
36839;SDS011;24406;51.640;9.566;2023-09-19T21:11:09;3.05;;;1.52;;
36839;SDS011;24406;51.640;9.566;2023-09-19T21:16:13;6.35;;;2.30;;
36839;SDS011;24406;51.640;9.566;2023-09-19T21:21:15;4.68;;;1.95;;
36839;SDS011;24406;51.640;9.566;2023-09-19T21:26:16;3.90;;;1.98;;
36839;SDS011;24406;51.640;9.566;2023-09-19T21:31:19;5.45;;;1.70;;
36839;SDS011;24406;51.640;9.566;2023-09-19T21:36:21;4.00;;;2.05;;
36839;SDS011;24406;51.640;9.566;2023-09-19T21:41:24;2.85;;;1.55;;
36839;SDS011;24406;51.640;9.566;2023-09-19T21:46:28;3.92;;;1.33;;
36839;SDS011;24406;51.640;9.566;2023-09-19T21:51:30;6.43;;;1.48;;
36839;SDS011;24406;51.640;9.566;2023-09-19T21:56:31;2.38;;;1.40;;
36839;SDS011;24406;51.640;9.566;2023-09-19T22:01:34;4.15;;;1.70;;
36839;SDS011;24406;51.640;9.566;2023-09-19T22:06:39;4.38;;;1.60;;
36839;SDS011;24406;51.640;9.566;2023-09-19T22:11:40;6.30;;;1.85;;
36839;SDS011;24406;51.640;9.566;2023-09-19T22:16:43;2.13;;;1.20;;
36839;SDS011;24406;51.640;9.566;2023-09-19T22:21:45;8.27;;;1.80;;
36839;SDS011;24406;51.640;9.566;2023-09-19T22:26:50;10.68;;;2.13;;
36839;SDS011;24406;51.640;9.566;2023-09-19T22:31:53;5.00;;;1.92;;
36839;SDS011;24406;51.640;9.566;2023-09-19T22:36:55;5.15;;;1.50;;
36839;SDS011;24406;51.640;9.566;2023-09-19T22:41:57;6.13;;;1.75;;
36839;SDS011;24406;51.640;9.566;2023-09-19T22:47:12;2.35;;;1.42;;
36839;SDS011;24406;51.640;9.566;2023-09-19T22:52:14;3.08;;;1.77;;
36839;SDS011;24406;51.640;9.566;2023-09-19T22:57:17;3.15;;;1.45;;
36839;SDS011;24406;51.640;9.566;2023-09-19T23:02:20;2.78;;;1.50;;
36839;SDS011;24406;51.640;9.566;2023-09-19T23:07:24;4.22;;;1.92;;
36839;SDS011;24406;51.640;9.566;2023-09-19T23:12:26;3.65;;;2.00;;
36839;SDS011;24406;51.640;9.566;2023-09-19T23:17:29;4.20;;;1.70;;
36839;SDS011;24406;51.640;9.566;2023-09-19T23:22:31;2.90;;;1.80;;
36839;SDS011;24406;51.640;9.566;2023-09-19T23:27:35;2.40;;;1.60;;
36839;SDS011;24406;51.640;9.566;2023-09-19T23:32:38;6.13;;;2.45;;
36839;SDS011;24406;51.640;9.566;2023-09-19T23:37:40;4.15;;;2.53;;
36839;SDS011;24406;51.640;9.566;2023-09-19T23:42:41;2.80;;;1.60;;
36839;SDS011;24406;51.640;9.566;2023-09-19T23:47:45;3.33;;;1.75;;
36839;SDS011;24406;51.640;9.566;2023-09-19T23:52:46;4.20;;;1.63;;
36839;SDS011;24406;51.640;9.566;2023-09-19T23:57:48;3.42;;;1.80;;
